createdAt,value
2024-05-09T00:00:42.439Z,18.65
2024-05-09T00:03:11.432Z,17.52
2024-05-09T00:05:44.260Z,18.45
2024-05-09T00:08:12.586Z,16.50
2024-05-09T00:10:40.985Z,18.42
2024-05-09T00:13:11.078Z,21.75
2024-05-09T00:15:55.830Z,23.45
2024-05-09T00:18:23.220Z,18.50
2024-05-09T00:20:50.640Z,18.27
2024-05-09T00:23:18.053Z,19.90
2024-05-09T00:25:45.662Z,20.48
2024-05-09T00:28:13.466Z,17.23
2024-05-09T00:30:41.164Z,20.10
2024-05-09T00:33:10.130Z,20.17
2024-05-09T00:35:38.957Z,17.98
2024-05-09T00:38:06.627Z,19.50
2024-05-09T00:40:41.855Z,27.45
2024-05-09T00:43:12.394Z,21.40
2024-05-09T00:45:40.898Z,15.98
2024-05-09T00:48:10.060Z,20.15
2024-05-09T00:50:41.445Z,20.75
2024-05-09T00:53:14.945Z,19.63
2024-05-09T00:55:42.750Z,18.23
2024-05-09T00:58:12.782Z,18.08
2024-05-09T01:00:41.583Z,23.23
2024-05-09T01:03:21.731Z,22.40
2024-05-09T01:05:49.353Z,19.02
2024-05-09T01:08:16.785Z,23.17
2024-05-09T01:10:47.094Z,24.17
2024-05-09T01:13:15.803Z,25.73
2024-05-09T01:15:43.639Z,19.83
2024-05-09T01:18:12.683Z,23.55
2024-05-09T01:20:43.888Z,22.67
2024-05-09T01:23:14.771Z,20.63
2024-05-09T01:25:44.823Z,20.92
2024-05-09T01:28:12.677Z,21.15
2024-05-09T01:30:39.928Z,15.73
2024-05-09T01:33:09.036Z,20.17
2024-05-09T01:35:38.822Z,23.35
2024-05-09T01:38:06.943Z,21.05
2024-05-09T01:40:38.757Z,20.90
2024-05-09T01:43:11.832Z,22.73
2024-05-09T01:45:40.684Z,22.63
2024-05-09T01:48:09.480Z,23.50
2024-05-09T01:50:40.804Z,25.23
2024-05-09T01:53:12.668Z,27.45
2024-05-09T01:55:40.645Z,23.45
2024-05-09T01:58:08.917Z,22.05
2024-05-09T02:00:40.358Z,28.98
2024-05-09T02:03:16.239Z,30.30
2024-05-09T02:05:47.121Z,35.38
2024-05-09T02:08:20.004Z,25.58
2024-05-09T02:10:48.898Z,24.52
2024-05-09T02:13:16.883Z,29.77
2024-05-09T02:15:59.231Z,26.65
2024-05-09T02:18:26.408Z,26.88
2024-05-09T02:20:53.823Z,27.13
2024-05-09T02:23:21.026Z,25.75
2024-05-09T02:25:48.370Z,25.80
2024-05-09T02:28:15.536Z,30.27
2024-05-09T02:30:43.920Z,24.17
2024-05-09T02:33:13.116Z,25.63
2024-05-09T02:35:43.475Z,25.20
2024-05-09T02:38:11.866Z,26.17
2024-05-09T02:40:40.187Z,26.65
2024-05-09T02:43:10.206Z,27.88
2024-05-09T02:45:39.277Z,26.52
2024-05-09T02:48:07.488Z,29.42
2024-05-09T02:50:39.051Z,26.92
2024-05-09T02:53:08.394Z,24.38
2024-05-09T02:55:40.678Z,29.52
2024-05-09T02:58:08.120Z,30.80
2024-05-09T03:00:39.752Z,26.75
2024-05-09T03:03:12.106Z,25.42
2024-05-09T03:06:02.497Z,28.70
2024-05-09T03:08:29.739Z,29.65
2024-05-09T03:10:57.073Z,32.40
2024-05-09T03:13:24.302Z,26.50
2024-05-09T03:15:51.399Z,26.27
2024-05-09T03:18:18.907Z,26.05
2024-05-09T03:20:46.186Z,26.55
2024-05-09T03:23:13.546Z,28.73
2024-05-09T03:25:40.914Z,25.95
2024-05-09T03:28:08.200Z,26.05
2024-05-09T03:30:41.412Z,32.10
2024-05-09T03:35:49.269Z,25.88
2024-05-09T03:38:17.253Z,24.08
2024-05-09T03:40:46.186Z,26.77
2024-05-09T03:43:14.266Z,25.13
2024-05-09T03:45:43.090Z,24.45
2024-05-09T03:48:10.779Z,27.60
2024-05-09T03:50:38.473Z,25.35
2024-05-09T03:53:09.725Z,27.42
2024-05-09T03:55:37.819Z,24.15
2024-05-09T03:58:08.152Z,26.05
2024-05-09T04:00:39.098Z,26.00
2024-05-09T04:05:44.898Z,25.40
2024-05-09T04:08:12.624Z,21.95
2024-05-09T04:10:40.456Z,23.55
2024-05-09T04:13:07.982Z,25.08
2024-05-09T04:15:44.655Z,25.77
2024-05-09T04:18:14.690Z,23.85
2024-05-09T04:20:42.171Z,28.17
2024-05-09T04:23:14.901Z,27.05
2024-05-09T04:25:44.550Z,27.65
2024-05-09T04:28:12.672Z,28.40
2024-05-09T04:30:41.567Z,28.70
2024-05-09T04:33:12.221Z,26.02
2024-05-09T04:35:45.011Z,28.73
2024-05-09T04:38:13.793Z,26.67
2024-05-09T04:40:41.723Z,24.15
2024-05-09T04:43:15.254Z,34.42
2024-05-09T04:45:45.309Z,26.20
2024-05-09T04:48:12.784Z,32.53
2024-05-09T04:50:40.398Z,21.48
2024-05-09T04:53:09.915Z,22.65
2024-05-09T04:55:40.533Z,22.48
2024-05-09T04:58:09.855Z,23.77
2024-05-09T05:00:39.442Z,24.92
2024-05-09T05:03:10.840Z,27.30
2024-05-09T05:05:41.124Z,26.65
2024-05-09T05:08:26.534Z,22.15
2024-05-09T05:10:56.098Z,24.60
2024-05-09T05:13:24.135Z,26.42
2024-05-09T05:15:58.784Z,26.67
2024-05-09T05:18:29.346Z,24.95
2024-05-09T05:20:57.403Z,20.35
2024-05-09T05:23:24.926Z,22.10
2024-05-09T05:25:53.846Z,26.70
2024-05-09T05:28:22.067Z,21.70
2024-05-09T05:30:49.500Z,21.15
2024-05-09T05:33:22.998Z,25.35
2024-05-09T05:35:50.711Z,25.42
2024-05-09T05:38:25.021Z,27.08
2024-05-09T05:40:55.236Z,20.50
2024-05-09T05:43:22.490Z,23.05
2024-05-09T05:45:49.760Z,20.75
2024-05-09T05:48:17.973Z,22.10
2024-05-09T05:50:48.782Z,24.77
2024-05-09T05:53:15.993Z,23.75
2024-05-09T05:55:44.473Z,22.92
2024-05-09T05:58:12.697Z,29.25
2024-05-09T06:00:41.934Z,31.30
2024-05-09T06:03:11.797Z,23.48
2024-05-09T06:05:52.108Z,22.92
2024-05-09T06:08:31.621Z,23.05
2024-05-09T06:11:11.255Z,28.42
2024-05-09T06:13:50.598Z,24.08
2024-05-09T06:16:29.881Z,20.67
2024-05-09T06:18:59.190Z,24.05
2024-05-09T06:21:27.704Z,24.02
2024-05-09T06:23:55.027Z,21.77
2024-05-09T06:26:22.673Z,22.30
2024-05-09T06:28:49.893Z,27.85
2024-05-09T06:31:17.160Z,21.20
2024-05-09T06:33:45.074Z,21.90
2024-05-09T06:36:15.086Z,24.60
2024-05-09T06:38:42.459Z,17.77
2024-05-09T06:41:09.690Z,19.42
2024-05-09T06:43:37.958Z,20.27
2024-05-09T06:46:12.686Z,20.33
2024-05-09T06:48:40.035Z,18.80
2024-05-09T06:51:07.430Z,16.23
2024-05-09T06:53:34.782Z,16.23
2024-05-09T06:56:03.128Z,18.55
2024-05-09T06:58:30.367Z,15.60
2024-05-09T07:00:57.556Z,14.90
2024-05-09T07:03:24.981Z,17.17
2024-05-09T07:05:52.248Z,16.73
2024-05-09T07:08:19.767Z,25.23
2024-05-09T07:10:48.637Z,18.15
2024-05-09T07:13:16.244Z,18.75
2024-05-09T07:15:43.580Z,16.80
2024-05-09T07:18:12.212Z,13.07
2024-05-09T07:20:40.810Z,16.67
2024-05-09T07:23:12.482Z,16.73
2024-05-09T07:25:40.893Z,20.23
2024-05-09T07:28:26.404Z,20.38
2024-05-09T07:30:53.671Z,18.80
2024-05-09T07:33:24.768Z,16.98
2024-05-09T07:35:53.046Z,15.80
2024-05-09T07:38:20.766Z,16.30
2024-05-09T07:40:48.330Z,16.88
2024-05-09T07:43:16.265Z,20.27
2024-05-09T07:45:51.839Z,15.85
2024-05-09T07:52:38.839Z,15.50
2024-05-09T07:53:49.231Z,12.68
2024-05-09T07:56:22.731Z,14.95
2024-05-09T07:58:53.053Z,13.55
2024-05-09T08:01:21.065Z,13.63
2024-05-09T08:03:48.709Z,13.90
2024-05-09T08:06:16.061Z,16.15
2024-05-09T08:08:43.441Z,16.73
2024-05-09T08:11:10.607Z,13.82
2024-05-09T08:13:37.792Z,16.42
2024-05-09T08:16:05.647Z,15.48
2024-05-09T08:18:33.508Z,12.73
2024-05-09T08:21:00.949Z,17.05
2024-05-09T08:23:28.912Z,15.07
2024-05-09T08:25:56.296Z,11.57
2024-05-09T08:28:23.493Z,11.48
2024-05-09T08:30:50.821Z,13.98
2024-05-09T08:33:18.330Z,14.77
2024-05-09T08:35:45.730Z,13.70
2024-05-09T08:38:12.891Z,12.98
2024-05-09T08:40:41.274Z,15.65
2024-05-09T08:43:11.570Z,12.43
2024-05-09T08:45:44.287Z,13.50
2024-05-09T08:48:15.052Z,13.68
2024-05-09T08:50:44.983Z,12.52
2024-05-09T08:53:14.621Z,20.67
2024-05-09T08:55:43.841Z,11.30
2024-05-09T08:58:20.039Z,12.50
2024-05-09T09:00:48.962Z,19.30
2024-05-09T09:03:23.257Z,16.27
2024-05-09T09:11:00.580Z,15.20
2024-05-09T09:13:28.277Z,15.60
2024-05-09T09:15:59.728Z,14.77
2024-05-09T09:18:28.212Z,12.65
2024-05-09T09:20:56.153Z,11.40
2024-05-09T09:23:23.484Z,10.57
2024-05-09T09:25:52.825Z,12.10
2024-05-09T09:28:23.460Z,10.35
2024-05-09T09:30:50.787Z,11.18
2024-05-09T09:33:18.277Z,14.50
2024-05-09T09:35:45.843Z,11.73
2024-05-09T09:38:19.638Z,11.00
2024-05-09T09:43:22.636Z,12.05
2024-05-09T10:00:42.480Z,11.48
2024-05-09T10:03:09.997Z,9.13
2024-05-09T10:05:38.330Z,11.63
2024-05-09T10:08:10.908Z,9.35
2024-05-09T10:10:38.482Z,10.68
2024-05-09T10:18:15.458Z,7.93
2024-05-09T10:20:46.960Z,11.20
2024-05-09T10:23:34.538Z,7.55
2024-05-09T10:26:05.642Z,7.35
2024-05-09T10:28:37.061Z,7.35
2024-05-09T10:31:16.000Z,9.25
2024-05-09T10:33:51.949Z,7.65
2024-05-09T10:36:23.907Z,6.57
2024-05-09T10:38:54.729Z,9.27
2024-05-09T10:41:23.633Z,8.32
2024-05-09T10:43:51.455Z,8.00
2024-05-09T10:46:22.384Z,8.93
2024-05-09T10:48:50.606Z,8.07
2024-05-09T10:51:24.151Z,6.40
2024-05-09T10:53:52.583Z,7.85
2024-05-09T10:56:22.057Z,8.05
2024-05-09T10:58:53.648Z,8.48
2024-05-09T11:01:21.417Z,6.90
2024-05-09T11:03:49.902Z,8.38
2024-05-09T11:06:18.082Z,9.13
2024-05-09T11:08:46.921Z,6.40
2024-05-09T11:11:14.483Z,8.95
2024-05-09T11:13:42.354Z,10.88
2024-05-09T11:16:21.877Z,7.18
2024-05-09T11:18:59.181Z,8.10
2024-05-09T11:21:26.980Z,7.97
2024-05-09T11:23:55.159Z,6.88
2024-05-09T11:26:25.173Z,8.13
2024-05-09T11:28:52.411Z,6.47
2024-05-09T11:31:23.518Z,6.60
2024-05-09T11:33:54.898Z,7.72
2024-05-09T11:36:22.749Z,6.93
2024-05-09T11:38:50.250Z,5.80
2024-05-09T11:41:20.077Z,8.38
2024-05-09T11:43:47.372Z,6.38
2024-05-09T11:46:14.898Z,10.02
2024-05-09T11:48:42.517Z,6.80
2024-05-09T11:51:09.808Z,6.82
2024-05-09T11:53:36.958Z,6.85
2024-05-09T11:56:06.914Z,5.72
2024-05-09T11:58:36.924Z,7.43
2024-05-09T12:01:05.709Z,5.50
2024-05-09T12:03:35.003Z,5.55
2024-05-09T12:06:02.548Z,4.40
2024-05-09T12:08:30.050Z,5.65
2024-05-09T12:10:57.498Z,6.88
2024-05-09T12:13:25.328Z,5.57
2024-05-09T12:15:52.683Z,8.32
2024-05-09T12:18:21.370Z,7.75
2024-05-09T12:20:51.610Z,4.85
2024-05-09T12:23:18.914Z,7.93
2024-05-09T12:25:49.338Z,5.45
2024-05-09T12:28:17.129Z,5.15
2024-05-09T12:30:46.745Z,10.13
2024-05-09T12:33:14.448Z,6.32
2024-05-09T12:35:47.326Z,9.18
2024-05-09T12:38:16.944Z,6.38
2024-05-09T12:40:44.515Z,12.27
2024-05-09T12:43:13.150Z,5.95
2024-05-09T12:45:40.783Z,6.03
2024-05-09T12:48:12.135Z,7.22
2024-05-09T12:50:41.262Z,6.53
2024-05-09T12:53:11.785Z,6.28
2024-05-09T12:55:48.943Z,7.00
2024-05-09T12:58:24.028Z,9.73
2024-05-09T13:00:52.584Z,4.78
2024-05-09T13:03:21.407Z,6.05
2024-05-09T13:05:50.604Z,7.43
2024-05-09T13:08:18.406Z,5.65
2024-05-09T13:10:45.944Z,6.03
2024-05-09T13:13:13.481Z,5.00
2024-05-09T13:15:41.094Z,9.15
2024-05-09T13:18:12.157Z,5.22
2024-05-09T13:20:39.507Z,9.10
2024-05-09T13:23:08.341Z,5.28
2024-05-09T13:25:37.351Z,8.07
2024-05-09T13:28:09.146Z,8.52
2024-05-09T13:30:40.768Z,7.05
2024-05-09T13:33:15.915Z,7.63
2024-05-09T13:35:47.367Z,8.88
2024-05-09T13:38:19.258Z,7.97
2024-05-09T13:40:47.219Z,5.25
2024-05-09T13:43:14.725Z,7.50
2024-05-09T13:45:41.960Z,6.20
2024-05-09T13:48:10.440Z,7.28
2024-05-09T13:50:41.357Z,8.25
2024-05-09T13:53:09.181Z,6.18
2024-05-09T13:55:39.126Z,7.47
2024-05-09T13:58:07.187Z,5.88
2024-05-09T14:00:44.272Z,7.85
2024-05-09T14:05:51.960Z,6.05
2024-05-09T14:08:22.335Z,5.60
2024-05-09T14:10:50.747Z,6.45
2024-05-09T14:13:18.824Z,5.60
2024-05-09T14:15:49.370Z,5.43
2024-05-09T14:18:17.342Z,7.20
2024-05-09T14:20:44.637Z,8.52
2024-05-09T14:23:11.876Z,6.65
2024-05-09T14:25:42.394Z,8.02
2024-05-09T14:28:11.617Z,6.55
2024-05-09T14:30:39.744Z,8.10
2024-05-09T14:33:08.713Z,7.40
2024-05-09T14:35:43.111Z,8.80
2024-05-09T14:38:10.746Z,11.63
2024-05-09T14:40:42.471Z,11.60
2024-05-09T14:43:12.868Z,9.05
2024-05-09T14:45:41.539Z,6.75
2024-05-09T14:48:09.857Z,7.68
2024-05-09T14:50:39.518Z,9.27
2024-05-09T14:53:09.910Z,7.28
2024-05-09T14:55:43.881Z,10.07
2024-05-09T14:58:12.140Z,9.15
2024-05-09T15:00:46.268Z,6.75
2024-05-09T15:03:18.221Z,6.38
2024-05-09T15:05:46.823Z,7.80
2024-05-09T15:08:17.390Z,6.72
2024-05-09T15:10:44.775Z,5.22
2024-05-09T15:13:14.367Z,7.20
2024-05-09T15:15:43.704Z,7.07
2024-05-09T15:18:11.409Z,6.78
2024-05-09T15:20:40.626Z,5.85
2024-05-09T15:23:07.994Z,5.60
2024-05-09T15:25:36.762Z,6.45
2024-05-09T15:28:07.659Z,9.20
2024-05-09T15:30:36.716Z,5.97
2024-05-09T15:33:05.513Z,7.25
2024-05-09T15:35:34.226Z,8.48
2024-05-09T15:38:03.504Z,6.97
2024-05-09T15:40:38.251Z,7.20
2024-05-09T15:43:09.739Z,6.60
2024-05-09T15:45:38.582Z,7.47
2024-05-09T15:48:09.751Z,14.80
2024-05-09T15:50:40.910Z,7.05
2024-05-09T15:53:11.683Z,7.88
2024-05-09T15:55:39.891Z,9.70
2024-05-09T15:58:07.738Z,7.10
2024-05-09T16:00:39.561Z,6.78
2024-05-09T16:03:13.988Z,8.27
2024-05-09T16:05:46.378Z,6.72
2024-05-09T16:08:15.887Z,6.50
2024-05-09T16:10:46.219Z,6.30
2024-05-09T16:13:14.799Z,9.95
2024-05-09T16:15:44.041Z,6.60
2024-05-09T16:18:12.115Z,9.68
2024-05-09T16:20:41.695Z,7.63
2024-05-09T16:23:11.128Z,15.80
2024-05-09T16:25:39.954Z,9.23
2024-05-09T16:28:10.270Z,6.00
2024-05-09T16:30:41.149Z,7.90
2024-05-09T16:33:09.407Z,9.90
2024-05-09T16:35:37.706Z,7.93
2024-05-09T16:38:08.523Z,8.25
2024-05-09T16:40:40.086Z,9.15
2024-05-09T16:43:12.864Z,8.80
2024-05-09T16:45:44.400Z,7.95
2024-05-09T16:48:12.360Z,8.50
2024-05-09T16:50:39.887Z,9.23
2024-05-09T16:53:07.455Z,7.78
2024-05-09T16:55:36.150Z,10.18
2024-05-09T16:58:06.668Z,8.18
2024-05-09T17:00:40.816Z,14.25
2024-05-09T17:03:16.572Z,9.55
2024-05-09T17:05:47.006Z,9.70
2024-05-09T17:08:18.269Z,9.18
2024-05-09T17:10:49.709Z,9.27
2024-05-09T17:13:17.734Z,9.30
2024-05-09T17:15:45.462Z,9.57
2024-05-09T17:18:13.194Z,10.98
2024-05-09T17:20:40.431Z,14.50
2024-05-09T17:23:14.045Z,9.18
2024-05-09T17:25:42.386Z,12.10
2024-05-09T17:28:10.563Z,14.70
2024-05-09T17:30:39.988Z,11.57
2024-05-09T17:33:10.299Z,11.73
2024-05-09T17:35:38.829Z,10.60
2024-05-09T17:38:12.225Z,11.10
2024-05-09T17:40:40.327Z,11.45
2024-05-09T17:43:09.932Z,11.45
2024-05-09T17:45:42.352Z,12.68
2024-05-09T17:48:11.955Z,11.05
2024-05-09T17:50:40.503Z,13.80
2024-05-09T17:53:09.335Z,13.52
2024-05-09T17:55:38.260Z,11.25
2024-05-09T17:58:06.710Z,11.52
2024-05-09T18:00:39.271Z,10.60
2024-05-09T18:03:13.262Z,12.95
2024-05-09T18:05:42.329Z,16.17
2024-05-09T18:08:10.423Z,12.70
2024-05-09T18:10:40.739Z,14.43
2024-05-09T18:13:09.372Z,15.55
2024-05-09T18:15:37.266Z,15.68
2024-05-09T18:18:05.824Z,12.77
2024-05-09T18:20:41.701Z,14.80
2024-05-09T18:23:18.005Z,14.77
2024-05-09T18:28:15.033Z,20.20
2024-05-09T18:30:42.334Z,15.25
2024-05-09T18:33:11.419Z,15.27
2024-05-09T18:35:39.336Z,15.38
2024-05-09T18:38:06.575Z,13.80
2024-05-09T18:40:36.688Z,15.20
2024-05-09T18:43:07.837Z,12.55
2024-05-09T18:45:37.857Z,17.02
2024-05-09T18:48:07.115Z,14.38
2024-05-09T18:50:39.088Z,13.32
2024-05-09T18:53:10.862Z,15.88
2024-05-09T18:55:38.854Z,18.13
2024-05-09T18:58:06.645Z,15.82
2024-05-09T19:00:37.458Z,16.30
2024-05-09T19:03:12.605Z,14.55
2024-05-09T19:05:43.159Z,13.43
2024-05-09T19:08:11.735Z,18.58
2024-05-09T19:10:40.660Z,16.30
2024-05-09T19:13:12.124Z,13.05
2024-05-09T19:15:42.209Z,14.47
2024-05-09T19:18:12.089Z,19.33
2024-05-09T19:20:39.795Z,11.77
2024-05-09T19:23:07.746Z,12.38
2024-05-09T19:25:36.201Z,13.85
2024-05-09T19:28:04.993Z,15.18
2024-05-09T19:30:39.281Z,15.90
2024-05-09T19:33:10.775Z,17.50
2024-05-09T19:35:42.486Z,12.65
2024-05-09T19:38:10.373Z,15.05
2024-05-09T19:40:37.625Z,15.27
2024-05-09T19:43:08.360Z,12.95
2024-05-09T19:45:36.583Z,12.32
2024-05-09T19:48:05.485Z,12.70
2024-05-09T19:50:41.915Z,14.52
2024-05-09T19:53:17.583Z,12.07
2024-05-09T19:55:44.819Z,15.15
2024-05-09T19:58:12.978Z,13.52
2024-05-09T20:00:42.950Z,12.25
2024-05-09T20:03:17.492Z,14.43
2024-05-09T20:05:46.716Z,12.07
2024-05-09T20:08:14.533Z,15.50
2024-05-09T20:10:43.148Z,11.43
2024-05-09T20:13:10.467Z,13.10
2024-05-09T20:15:40.424Z,14.00
2024-05-09T20:18:08.011Z,15.00
2024-05-09T20:20:39.886Z,15.45
2024-05-09T20:23:10.956Z,14.60
2024-05-09T20:25:38.259Z,11.50
2024-05-09T20:28:06.774Z,15.52
2024-05-09T20:30:35.761Z,24.25
2024-05-09T20:33:05.271Z,13.50
2024-05-09T20:35:34.134Z,22.98
2024-05-09T20:38:02.510Z,19.30
2024-05-09T20:40:34.785Z,15.77
2024-05-09T20:43:05.843Z,18.75
2024-05-09T20:45:33.768Z,14.63
2024-05-09T20:48:01.717Z,19.00
2024-05-09T20:50:37.133Z,14.23
2024-05-09T20:53:12.871Z,15.30
2024-05-09T20:55:41.315Z,19.33
2024-05-09T20:58:09.700Z,14.85
2024-05-09T21:00:40.861Z,15.57
2024-05-09T21:03:11.795Z,19.95
2024-05-09T21:05:40.267Z,19.13
2024-05-09T21:08:07.932Z,15.48
2024-05-09T21:10:36.541Z,14.50
2024-05-09T21:13:07.282Z,15.38
2024-05-09T21:15:35.607Z,16.05
2024-05-09T21:18:04.082Z,16.00
2024-05-09T21:20:33.480Z,15.40
2024-05-09T21:23:02.024Z,14.25
2024-05-09T21:25:32.476Z,14.55
2024-05-09T21:28:00.583Z,17.88
2024-05-09T21:30:37.657Z,19.73
2024-05-09T21:33:10.935Z,17.23
2024-05-09T21:35:39.624Z,13.88
2024-05-09T21:38:07.685Z,18.70
2024-05-09T21:40:36.601Z,32.75
2024-05-09T21:43:07.485Z,15.82
2024-05-09T21:45:38.257Z,16.65
2024-05-09T21:48:06.937Z,15.50
2024-05-09T21:50:40.303Z,14.88
2024-05-09T21:53:13.560Z,17.60
2024-05-09T21:55:44.943Z,16.73
2024-05-09T21:58:15.483Z,17.52
2024-05-09T22:00:45.569Z,15.68
2024-05-09T22:03:13.768Z,16.65
2024-05-09T22:05:43.710Z,14.93
2024-05-09T22:08:11.147Z,18.90
2024-05-09T22:10:38.829Z,17.23
2024-05-09T22:13:09.469Z,17.13
2024-05-09T22:15:43.877Z,22.17
2024-05-09T22:18:11.848Z,18.65
2024-05-09T22:20:46.952Z,17.75
2024-05-09T22:23:15.928Z,20.08
2024-05-09T22:25:43.250Z,18.30
2024-05-09T22:28:20.140Z,17.13
2024-05-09T22:30:47.825Z,20.30
2024-05-09T22:33:15.789Z,20.42
2024-05-09T22:35:43.207Z,21.02
2024-05-09T22:38:10.361Z,22.92
2024-05-09T22:40:47.312Z,23.83
2024-05-09T22:43:19.017Z,23.33
2024-05-09T22:45:47.171Z,18.95
2024-05-09T22:48:17.857Z,20.58
2024-05-09T22:50:45.486Z,19.58
2024-05-09T22:53:12.694Z,22.33
2024-05-09T22:55:40.054Z,19.85
2024-05-09T22:58:09.196Z,23.92
2024-05-09T23:00:39.628Z,24.30
2024-05-09T23:03:16.613Z,21.10
2024-05-09T23:05:43.987Z,23.55
2024-05-09T23:08:11.209Z,23.13
2024-05-09T23:10:38.649Z,21.48
2024-05-09T23:13:07.797Z,27.63
2024-05-09T23:15:38.343Z,21.73
2024-05-09T23:18:06.734Z,23.85
2024-05-09T23:20:38.640Z,25.10
2024-05-09T23:23:11.676Z,25.17
2024-05-09T23:25:42.549Z,26.17
2024-05-09T23:28:11.612Z,25.40
2024-05-09T23:30:41.137Z,25.08
2024-05-09T23:33:11.321Z,28.52
2024-05-09T23:35:40.888Z,24.88
2024-05-09T23:38:12.732Z,28.38
2024-05-09T23:40:41.568Z,24.67
2024-05-09T23:43:13.956Z,26.15
2024-05-09T23:45:48.157Z,26.13
2024-05-09T23:48:15.549Z,24.42
2024-05-09T23:50:43.207Z,29.38
2024-05-09T23:53:11.112Z,26.35
2024-05-09T23:55:39.251Z,27.08
2024-05-09T23:58:09.671Z,26.20
